Time;durP1;ratioP1;P1;durP2;ratioP2;P2;SDS_P1;SDS_P2;PMS_P1;PMS_P2;Temp;Humidity;BMP_temperature;BMP_pressure;BME280_temperature;BME280_humidity;BME280_pressure;Samples;Min_cycle;Max_cycle;Signal;HPM_P1;HPM_P2
2022/07/26 00:01:21;;;;;;;12.40;2.65;;;20.80;78.20;;;;;;5071243;28;20024;-76
2022/07/26 00:03:49;;;;;;;12.40;2.30;;;20.80;78.20;;;;;;5071670;28;20112;-76
2022/07/26 00:06:15;;;;;;;13.18;3.05;;;20.80;78.00;;;;;;5069299;28;20509;-76
2022/07/26 00:08:41;;;;;;;10.77;2.45;;;20.70;78.10;;;;;;5070371;28;20028;-76
2022/07/26 00:11:07;;;;;;;8.32;1.98;;;20.70;78.20;;;;;;5071365;28;20043;-76
2022/07/26 00:13:33;;;;;;;14.27;2.72;;;20.60;77.70;;;;;;5071283;28;20074;-75
2022/07/26 00:16:00;;;;;;;12.73;3.17;;;20.70;77.80;;;;;;5069405;28;20043;-76
2022/07/26 00:18:27;;;;;;;12.10;2.55;;;20.70;78.10;;;;;;5071102;28;20479;-73
2022/07/26 00:20:53;;;;;;;14.25;2.50;;;20.70;78.10;;;;;;5070277;28;21078;-76
2022/07/26 00:23:18;;;;;;;14.07;2.88;;;20.60;78.50;;;;;;5070139;28;20032;-76
2022/07/26 00:25:45;;;;;;;12.07;2.95;;;20.60;78.30;;;;;;5070749;28;20031;-76
2022/07/26 00:28:11;;;;;;;9.85;2.40;;;20.50;78.90;;;;;;5070141;28;20482;-77
2022/07/26 00:30:38;;;;;;;12.35;2.58;;;20.60;78.70;;;;;;5070820;28;20090;-76
2022/07/26 00:33:05;;;;;;;15.10;3.08;;;20.50;79.00;;;;;;5070289;28;20044;-76
2022/07/26 00:35:32;;;;;;;13.05;2.80;;;20.50;79.30;;;;;;5070054;28;20037;-76
2022/07/26 00:37:58;;;;;;;10.63;2.70;;;20.50;79.30;;;;;;5068564;28;20074;-76
2022/07/26 00:40:24;;;;;;;17.80;3.20;;;20.50;79.30;;;;;;5070530;28;20076;-75
2022/07/26 00:42:50;;;;;;;12.38;2.65;;;20.50;79.60;;;;;;5069342;28;20074;-76
2022/07/26 00:45:17;;;;;;;12.57;3.28;;;20.50;79.40;;;;;;5069820;28;20036;-76
2022/07/26 00:47:43;;;;;;;17.55;4.10;;;20.50;79.30;;;;;;5070455;28;20095;-76
2022/07/26 00:50:15;;;;;;;9.18;2.50;;;20.50;79.10;;;;;;5070760;28;20033;-74
2022/07/26 00:52:42;;;;;;;9.25;2.42;;;20.60;79.10;;;;;;5067994;28;20503;-75
2022/07/26 00:55:08;;;;;;;12.93;3.08;;;20.60;79.10;;;;;;5070236;28;20470;-76
2022/07/26 00:57:34;;;;;;;12.63;2.75;;;20.50;79.20;;;;;;5069913;28;20024;-76
2022/07/26 01:00:06;;;;;;;11.13;2.83;;;20.60;79.20;;;;;;5069577;28;20028;-77
2022/07/26 01:02:32;;;;;;;11.63;3.10;;;20.50;79.50;;;;;;5069193;28;20016;-76
2022/07/26 01:04:57;;;;;;;13.05;3.33;;;20.60;79.40;;;;;;5068713;28;20040;-76
2022/07/26 01:07:23;;;;;;;9.38;2.90;;;20.60;78.90;;;;;;5069644;28;20017;-75
2022/07/26 01:09:49;;;;;;;12.45;2.65;;;20.60;79.30;;;;;;5070306;28;20017;-75
2022/07/26 01:12:14;;;;;;;10.40;2.45;;;20.60;79.10;;;;;;5069929;28;20095;-76
2022/07/26 01:14:44;;;;;;;13.93;2.72;;;20.60;78.90;;;;;;5070026;28;20024;-75
2022/07/26 01:17:11;;;;;;;12.18;3.35;;;20.50;79.30;;;;;;5070105;28;20020;-76
2022/07/26 01:19:38;;;;;;;11.88;2.28;;;20.40;79.80;;;;;;5067994;28;20029;-75
2022/07/26 01:22:03;;;;;;;14.30;2.88;;;20.40;79.60;;;;;;5069868;28;20024;-75
2022/07/26 01:24:29;;;;;;;10.85;2.65;;;20.40;79.40;;;;;;5069371;28;20537;-76
2022/07/26 01:26:55;;;;;;;7.60;2.58;;;20.40;79.90;;;;;;5069890;28;20071;-76
2022/07/26 01:29:22;;;;;;;14.13;3.25;;;20.30;79.70;;;;;;5068804;28;20017;-74
2022/07/26 01:31:48;;;;;;;10.57;2.30;;;20.30;80.20;;;;;;5069898;28;20051;-76
2022/07/26 01:34:14;;;;;;;8.40;2.08;;;20.20;79.80;;;;;;5062190;28;20056;-77
2022/07/26 01:36:40;;;;;;;12.68;2.53;;;20.20;79.60;;;;;;5069103;28;20083;-76
2022/07/26 01:39:06;;;;;;;12.40;3.00;;;20.20;80.60;;;;;;5069594;28;20483;-75
2022/07/26 01:41:32;;;;;;;7.47;1.83;;;20.20;80.20;;;;;;5068766;28;20053;-76
2022/07/26 01:43:58;;;;;;;10.65;2.75;;;20.20;80.10;;;;;;5070829;28;20024;-76
2022/07/26 01:46:23;;;;;;;10.73;2.88;;;20.20;80.20;;;;;;5069493;28;20043;-75
2022/07/26 01:48:50;;;;;;;13.23;3.13;;;20.20;80.40;;;;;;5061336;28;20558;-75
2022/07/26 01:51:16;;;;;;;14.60;3.05;;;20.20;80.50;;;;;;5069955;28;20546;-76
2022/07/26 01:53:44;;;;;;;10.65;2.92;;;20.10;80.40;;;;;;5069150;28;20020;-76
2022/07/26 01:56:10;;;;;;;12.93;2.83;;;20.00;81.00;;;;;;5068305;28;20407;-75
2022/07/26 01:58:37;;;;;;;11.43;2.83;;;20.00;81.30;;;;;;5068158;28;20151;-76
2022/07/26 02:01:03;;;;;;;16.38;3.25;;;20.00;81.40;;;;;;5065050;28;20023;-76
2022/07/26 02:03:28;;;;;;;11.73;3.30;;;19.90;82.00;;;;;;5069730;28;20029;-75
2022/07/26 02:05:54;;;;;;;12.48;3.03;;;19.90;81.80;;;;;;5068983;28;20523;-74
2022/07/26 02:08:19;;;;;;;11.70;3.33;;;19.80;82.60;;;;;;5068248;28;20029;-76
2022/07/26 02:11:00;;;;;;;13.05;2.35;;;19.70;83.00;;;;;;5068006;28;20031;-76
2022/07/26 02:13:35;;;;;;;19.98;3.95;;;19.70;83.30;;;;;;5049058;28;20044;-76
2022/07/26 02:16:03;;;;;;;19.50;3.67;;;19.70;82.80;;;;;;5063071;28;20059;-75
2022/07/26 02:18:29;;;;;;;11.02;2.83;;;19.60;83.90;;;;;;5069199;28;20588;-75
2022/07/26 02:20:56;;;;;;;14.05;3.15;;;19.60;83.30;;;;;;5069445;28;20020;-75
2022/07/26 02:23:22;;;;;;;12.50;3.58;;;19.60;84.30;;;;;;5069041;28;20025;-75
2022/07/26 02:25:48;;;;;;;13.82;3.30;;;19.60;83.30;;;;;;5067641;28;20036;-76
2022/07/26 02:28:14;;;;;;;10.48;2.97;;;19.60;84.10;;;;;;5069231;28;20682;-76
2022/07/26 02:30:41;;;;;;;10.68;3.38;;;19.60;84.40;;;;;;5064136;28;20030;-76
2022/07/26 02:33:07;;;;;;;15.32;3.55;;;19.60;84.40;;;;;;5068924;28;20518;-75
2022/07/26 02:35:32;;;;;;;10.57;2.88;;;19.70;84.80;;;;;;5069267;28;20113;-76
2022/07/26 02:38:04;;;;;;;13.13;3.45;;;19.60;84.60;;;;;;5068261;28;20052;-74
2022/07/26 02:40:32;;;;;;;10.60;2.92;;;19.70;84.60;;;;;;5060188;28;20133;-75
2022/07/26 02:42:58;;;;;;;9.85;3.15;;;19.70;85.10;;;;;;5068549;28;20056;-75
2022/07/26 02:45:24;;;;;;;7.85;2.80;;;19.70;85.10;;;;;;5063062;28;20025;-75
2022/07/26 02:47:52;;;;;;;11.75;2.97;;;19.70;85.60;;;;;;5069121;28;20020;-75
2022/07/26 02:50:20;;;;;;;14.10;3.22;;;19.70;85.60;;;;;;5068157;28;20669;-75
2022/07/26 02:52:47;;;;;;;12.32;3.45;;;19.70;85.90;;;;;;5066554;28;20029;-75
2022/07/26 02:55:13;;;;;;;14.20;3.92;;;19.80;86.00;;;;;;5068591;28;20092;-76
2022/07/26 02:57:39;;;;;;;13.32;3.67;;;19.80;86.20;;;;;;5058914;28;20039;-75
2022/07/26 03:00:07;;;;;;;12.35;4.18;;;19.80;86.70;;;;;;5069534;28;20024;-76
2022/07/26 03:02:32;;;;;;;16.23;4.00;;;19.70;86.90;;;;;;5069167;28;20056;-76
2022/07/26 03:04:58;;;;;;;14.18;3.35;;;19.80;87.00;;;;;;5069567;28;20510;-75
2022/07/26 03:07:23;;;;;;;6.68;2.63;;;19.70;87.30;;;;;;5068739;28;20036;-76
2022/07/26 03:09:49;;;;;;;12.98;4.05;;;19.70;86.90;;;;;;5074181;28;20021;-76
2022/07/26 03:12:15;;;;;;;10.25;4.00;;;19.70;87.40;;;;;;5069164;28;20036;-75
2022/07/26 03:14:40;;;;;;;12.23;4.45;;;19.70;87.60;;;;;;5068816;28;20024;-76
2022/07/26 03:17:06;;;;;;;9.93;3.45;;;19.70;88.30;;;;;;5067622;28;20040;-76
2022/07/26 03:19:31;;;;;;;13.20;4.47;;;19.70;88.20;;;;;;5068578;28;20052;-75
2022/07/26 03:21:57;;;;;;;14.52;3.95;;;19.70;88.30;;;;;;5068451;28;20046;-75
2022/07/26 03:24:23;;;;;;;11.68;3.95;;;19.70;88.10;;;;;;5067519;28;20102;-74
2022/07/26 03:26:48;;;;;;;12.73;4.40;;;19.70;88.80;;;;;;5067163;28;20037;-76
2022/07/26 03:29:14;;;;;;;9.52;3.92;;;19.70;88.20;;;;;;5068542;28;20041;-75
2022/07/26 03:31:39;;;;;;;16.48;4.43;;;19.70;88.60;;;;;;5067708;28;20025;-76
2022/07/26 03:34:05;;;;;;;9.70;3.10;;;19.80;88.70;;;;;;5067190;28;20025;-76
2022/07/26 03:36:31;;;;;;;13.23;4.35;;;19.80;88.50;;;;;;5064508;28;20032;-76
2022/07/26 03:38:56;;;;;;;14.07;3.78;;;19.80;89.10;;;;;;5064923;28;20105;-75
2022/07/26 03:41:22;;;;;;;16.00;4.82;;;19.80;88.90;;;;;;5067237;28;20045;-76
2022/07/26 03:43:48;;;;;;;12.38;4.38;;;19.90;89.10;;;;;;5069651;28;20093;-75
2022/07/26 03:46:13;;;;;;;10.25;3.72;;;19.90;89.00;;;;;;5066529;28;20377;-76
2022/07/26 03:48:39;;;;;;;10.82;4.93;;;19.90;88.90;;;;;;5062981;28;20139;-75
2022/07/26 03:51:04;;;;;;;9.40;4.43;;;19.90;89.00;;;;;;5071448;28;20024;-75
2022/07/26 03:53:30;;;;;;;7.95;3.40;;;19.90;89.00;;;;;;5070307;28;20020;-76
2022/07/26 03:58:40;;;;;;;10.80;4.00;;;19.90;89.00;;;;;;5060359;28;20078;-76
2022/07/26 04:01:05;;;;;;;8.30;3.40;;;19.80;89.30;;;;;;5070878;28;20474;-76
2022/07/26 04:03:31;;;;;;;12.85;3.88;;;19.90;89.20;;;;;;5071330;28;20024;-76
2022/07/26 04:05:57;;;;;;;13.75;4.40;;;19.80;89.00;;;;;;5071074;28;20036;-76
2022/07/26 04:08:22;;;;;;;10.30;3.78;;;19.90;89.10;;;;;;5063668;28;20017;-76
2022/07/26 04:10:51;;;;;;;14.18;4.28;;;19.90;89.00;;;;;;5070051;28;20024;-76
2022/07/26 04:13:18;;;;;;;13.60;4.15;;;19.90;88.90;;;;;;5069565;28;20024;-76
2022/07/26 04:15:44;;;;;;;17.25;4.65;;;19.90;89.00;;;;;;5070227;28;20067;-75
2022/07/26 04:18:15;;;;;;;12.45;4.40;;;19.80;89.10;;;;;;5070688;28;20048;-75
2022/07/26 04:20:41;;;;;;;11.38;4.43;;;19.90;89.20;;;;;;5070511;28;20548;-76
2022/07/26 04:23:08;;;;;;;14.25;4.43;;;19.80;89.20;;;;;;5071342;28;20024;-76
2022/07/26 04:25:33;;;;;;;16.77;4.97;;;19.80;89.50;;;;;;5070749;28;20104;-76
2022/07/26 04:28:00;;;;;;;18.35;4.88;;;19.80;89.60;;;;;;5070467;28;20451;-76
2022/07/26 04:30:26;;;;;;;17.27;5.10;;;19.80;89.40;;;;;;5070682;28;20386;-76
2022/07/26 04:32:52;;;;;;;15.18;4.93;;;19.80;89.60;;;;;;5065062;28;20021;-75
2022/07/26 04:35:17;;;;;;;11.82;4.32;;;19.70;89.70;;;;;;5068597;28;20036;-76
2022/07/26 04:37:44;;;;;;;11.48;3.92;;;19.70;89.70;;;;;;5070472;28;20075;-76
2022/07/26 04:40:14;;;;;;;16.27;5.15;;;19.70;89.40;;;;;;5070395;28;20017;-76
2022/07/26 04:42:39;;;;;;;13.57;4.30;;;19.70;89.50;;;;;;5066823;28;20017;-76
2022/07/26 04:45:06;;;;;;;11.13;4.10;;;19.80;89.30;;;;;;5069286;28;20430;-76
2022/07/26 04:47:31;;;;;;;13.00;4.18;;;19.70;89.00;;;;;;5064959;28;20029;-75
2022/07/26 04:49:57;;;;;;;10.65;4.05;;;19.70;89.10;;;;;;5054993;28;20032;-76
2022/07/26 04:52:23;;;;;;;9.52;3.60;;;19.70;89.30;;;;;;5070185;28;20020;-76
2022/07/26 04:54:48;;;;;;;9.93;3.50;;;19.70;89.20;;;;;;5067730;28;20095;-76
2022/07/26 04:57:14;;;;;;;11.93;3.67;;;19.80;88.80;;;;;;5065217;28;20027;-76
2022/07/26 04:59:39;;;;;;;10.95;3.33;;;19.90;88.70;;;;;;5068924;28;20067;-76
2022/07/26 05:02:05;;;;;;;7.80;3.28;;;19.90;88.50;;;;;;5068829;28;20047;-76
2022/07/26 05:04:31;;;;;;;8.80;3.75;;;19.90;88.20;;;;;;5069421;28;20107;-75
2022/07/26 05:07:01;;;;;;;12.57;3.70;;;20.00;88.20;;;;;;5068025;28;20024;-77
2022/07/26 05:09:27;;;;;;;;;;;20.00;88.00;;;;;;5061046;28;20043;-75
2022/07/26 05:11:55;;;;;;;12.80;3.67;;;20.00;87.70;;;;;;5069184;28;19954;-77
2022/07/26 05:14:21;;;;;;;9.13;3.47;;;20.10;87.80;;;;;;5069766;28;20478;-76
2022/07/26 05:16:47;;;;;;;11.00;3.15;;;20.10;87.60;;;;;;5069400;28;20124;-77
2022/07/26 05:19:13;;;;;;;5.75;2.38;;;20.20;87.20;;;;;;5068559;28;20078;-76
2022/07/26 05:21:39;;;;;;;14.43;3.95;;;20.10;87.20;;;;;;5069402;28;20021;-76
2022/07/26 05:24:06;;;;;;;9.93;3.97;;;20.20;87.10;;;;;;5067933;28;20032;-77
2022/07/26 05:26:32;;;;;;;11.60;3.95;;;20.20;87.10;;;;;;5061909;28;20035;-75
2022/07/26 05:28:57;;;;;;;11.40;3.13;;;20.20;87.10;;;;;;5069357;28;20135;-75
2022/07/26 05:31:27;;;;;;;8.77;2.92;;;20.30;86.10;;;;;;5068446;28;20021;-73
2022/07/26 05:33:53;;;;;;;12.77;3.50;;;20.30;86.20;;;;;;5059541;28;20057;-74
2022/07/26 05:36:20;;;;;;;15.82;4.05;;;20.30;85.90;;;;;;5053033;28;20648;-74
2022/07/26 05:38:46;;;;;;;12.07;3.58;;;20.30;85.90;;;;;;5067875;28;20103;-74
2022/07/26 05:41:12;;;;;;;8.75;2.70;;;20.30;86.00;;;;;;5068956;28;20072;-73
2022/07/26 05:43:37;;;;;;;6.03;1.70;;;20.30;85.90;;;;;;5061469;28;20078;-73
2022/07/26 05:46:03;;;;;;;11.70;2.85;;;20.40;83.10;;;;;;5069496;28;20383;-74
2022/07/26 05:48:29;;;;;;;7.75;2.22;;;20.40;84.20;;;;;;5069462;28;20031;-74
2022/07/26 05:50:54;;;;;;;8.82;3.15;;;20.40;83.90;;;;;;5059592;28;20487;-74
2022/07/26 05:53:20;;;;;;;9.73;2.20;;;20.50;84.30;;;;;;5067442;28;20024;-74
2022/07/26 05:55:45;;;;;;;9.70;2.47;;;20.50;83.50;;;;;;5059036;28;20056;-73
2022/07/26 05:58:11;;;;;;;8.50;2.15;;;20.50;84.00;;;;;;5068832;28;20078;-74
2022/07/26 06:00:37;;;;;;;8.38;2.45;;;20.50;84.00;;;;;;5064644;28;20036;-74
2022/07/26 06:03:21;;;;;;;6.03;1.90;;;20.60;83.70;;;;;;5060532;28;20070;-73
2022/07/26 06:05:51;;;;;;;7.55;1.98;;;20.60;83.40;;;;;;5064741;28;20036;-74
2022/07/26 06:08:17;;;;;;;8.85;2.30;;;20.60;83.00;;;;;;5057073;28;20124;-73
2022/07/26 06:10:44;;;;;;;5.75;1.80;;;20.60;82.90;;;;;;5063993;28;20056;-76
2022/07/26 06:13:10;;;;;;;9.95;2.15;;;20.60;82.80;;;;;;5067701;28;20139;-71
2022/07/26 06:15:37;;;;;;;5.97;1.30;;;20.60;82.70;;;;;;5068804;28;20051;-75
2022/07/26 06:18:04;;;;;;;4.63;1.13;;;20.60;81.30;;;;;;5068670;28;20051;-74
2022/07/26 06:20:30;;;;;;;4.22;1.17;;;20.70;76.50;;;;;;5066995;28;20028;-74
2022/07/26 06:22:59;;;;;;;3.95;1.00;;;20.90;77.90;;;;;;5066364;28;20035;-74
2022/07/26 06:25:26;;;;;;;5.18;1.30;;;21.00;76.60;;;;;;5060073;28;20616;-75
2022/07/26 06:27:52;;;;;;;4.43;1.63;;;21.10;76.60;;;;;;5051154;28;20033;-74
2022/07/26 06:30:19;;;;;;;8.07;1.95;;;21.10;78.20;;;;;;5062148;28;20029;-75
2022/07/26 06:32:44;;;;;;;5.63;1.48;;;21.10;79.00;;;;;;5058834;28;20029;-73
2022/07/26 06:35:11;;;;;;;11.57;2.38;;;21.10;79.20;;;;;;5058446;28;20021;-75
2022/07/26 06:37:38;;;;;;;8.77;2.45;;;21.10;79.60;;;;;;5056069;28;20029;-75
2022/07/26 06:40:04;;;;;;;7.35;1.60;;;21.00;79.60;;;;;;5058842;28;20020;-75
2022/07/26 06:42:31;;;;;;;5.18;1.50;;;21.00;79.30;;;;;;5053996;28;20025;-75
2022/07/26 06:44:58;;;;;;;5.40;1.30;;;20.90;78.30;;;;;;5059580;28;20637;-74
2022/07/26 06:47:24;;;;;;;5.32;1.20;;;20.90;77.90;;;;;;5058375;28;20091;-75
2022/07/26 06:49:51;;;;;;;4.90;1.67;;;20.90;78.10;;;;;;5057838;28;20025;-75
2022/07/26 06:52:17;;;;;;;7.13;1.95;;;20.90;79.10;;;;;;5058009;28;20824;-73
2022/07/26 06:54:43;;;;;;;4.15;1.70;;;21.00;78.90;;;;;;5063012;28;20059;-73
2022/07/26 06:57:12;;;;;;;5.10;1.48;;;21.00;79.10;;;;;;5055538;28;20064;-73
2022/07/26 06:59:39;;;;;;;5.15;1.50;;;21.00;79.20;;;;;;5059036;28;20852;-75
2022/07/26 07:02:04;;;;;;;5.28;1.30;;;21.00;78.80;;;;;;5058833;28;20386;-75
2022/07/26 07:04:31;;;;;;;3.42;1.10;;;21.00;79.60;;;;;;5061084;28;20016;-73
2022/07/26 07:07:01;;;;;;;6.75;2.10;;;21.10;79.40;;;;;;5065964;28;20021;-73
2022/07/26 07:09:34;;;;;;;6.13;1.20;;;21.10;80.40;;;;;;5050837;28;20109;-72
2022/07/26 07:12:01;;;;;;;11.27;2.90;;;21.10;75.40;;;;;;5065305;28;20398;-73
2022/07/26 07:14:28;;;;;;;4.65;1.50;;;21.10;77.30;;;;;;5068287;28;20024;-73
2022/07/26 07:16:55;;;;;;;7.35;2.28;;;21.10;77.80;;;;;;5056337;28;20029;-73
2022/07/26 07:19:21;;;;;;;6.72;2.00;;;21.00;80.30;;;;;;5069609;28;20028;-73
2022/07/26 07:21:46;;;;;;;2.25;1.02;;;20.90;81.60;;;;;;5071817;28;20600;-72
2022/07/26 07:24:12;;;;;;;5.20;1.38;;;20.70;82.20;;;;;;5071566;28;20024;-72
2022/07/26 07:26:40;;;;;;;5.35;1.73;;;20.60;83.60;;;;;;5067152;28;20024;-72
2022/07/26 07:29:06;;;;;;;5.43;1.52;;;20.50;84.60;;;;;;5062187;28;20032;-71
2022/07/26 07:31:34;;;;;;;4.82;1.35;;;20.50;83.60;;;;;;5070595;28;20025;-72
2022/07/26 07:33:59;;;;;;;6.65;1.85;;;20.50;85.10;;;;;;5071600;28;20029;-71
2022/07/26 07:36:26;;;;;;;5.10;2.05;;;20.40;85.80;;;;;;5066841;28;20039;-71
2022/07/26 07:38:52;;;;;;;7.75;2.58;;;20.40;86.90;;;;;;5065676;28;20516;-70
2022/07/26 07:41:17;;;;;;;8.73;2.38;;;20.30;87.00;;;;;;5069507;28;20049;-70
2022/07/26 07:43:43;;;;;;;6.18;2.00;;;20.30;87.60;;;;;;5071646;28;20028;-71
2022/07/26 07:46:12;;;;;;;5.95;1.85;;;20.20;87.90;;;;;;5071620;28;20021;-70
2022/07/26 07:48:39;;;;;;;7.03;2.17;;;20.10;88.40;;;;;;5071568;28;20028;-70
2022/07/26 07:51:06;;;;;;;7.55;2.25;;;20.10;89.50;;;;;;5067083;28;20021;-70
2022/07/26 07:53:34;;;;;;;5.57;2.00;;;20.10;89.70;;;;;;5069019;28;20028;-70
2022/07/26 07:56:00;;;;;;;8.70;2.28;;;20.00;89.80;;;;;;5070949;28;20040;-72
2022/07/26 07:58:26;;;;;;;6.07;1.83;;;20.00;89.60;;;;;;5064206;28;20506;-70
2022/07/26 08:00:52;;;;;;;4.70;1.83;;;20.00;90.00;;;;;;5071773;28;20029;-70
2022/07/26 08:03:18;;;;;;;7.00;2.08;;;20.10;90.00;;;;;;5063842;28;20028;-70
2022/07/26 08:05:47;;;;;;;5.70;1.70;;;20.20;90.00;;;;;;5070946;28;20021;-70
2022/07/26 08:08:12;;;;;;;4.90;1.98;;;20.10;89.70;;;;;;5070015;28;20037;-70
2022/07/26 08:10:38;;;;;;;4.22;1.00;;;20.10;89.30;;;;;;5069833;28;20491;-70
2022/07/26 08:13:04;;;;;;;3.75;1.20;;;20.10;87.40;;;;;;5070245;28;20104;-70
2022/07/26 08:15:29;;;;;;;2.40;0.80;;;20.00;88.50;;;;;;5067650;28;20479;-71
2022/07/26 08:17:55;;;;;;;3.25;1.40;;;20.00;86.60;;;;;;5063733;28;20024;-71
2022/07/26 08:20:21;;;;;;;4.28;0.77;;;19.90;86.50;;;;;;5067340;28;20475;-71
2022/07/26 08:22:46;;;;;;;1.95;0.70;;;19.80;82.50;;;;;;5068912;28;20035;-71
2022/07/26 08:25:12;;;;;;;2.80;0.75;;;19.80;82.80;;;;;;5068929;28;20025;-70
2022/07/26 08:27:38;;;;;;;2.22;0.70;;;19.70;84.60;;;;;;5069392;28;20028;-71
2022/07/26 08:30:04;;;;;;;3.50;0.70;;;19.70;87.00;;;;;;5070239;28;20512;-71
2022/07/26 08:32:30;;;;;;;2.80;0.80;;;19.80;88.10;;;;;;5083460;28;20061;-70
2022/07/26 08:34:56;;;;;;;2.47;0.80;;;19.80;88.10;;;;;;5069319;28;20307;-70
2022/07/26 08:37:21;;;;;;;3.50;1.02;;;19.80;89.00;;;;;;5074694;28;20036;-70
2022/07/26 08:39:47;;;;;;;2.20;0.80;;;19.90;88.60;;;;;;5083096;28;20444;-69
2022/07/26 08:42:19;;;;;;;2.33;0.85;;;19.90;87.50;;;;;;5074279;28;20041;-70
2022/07/26 08:44:46;;;;;;;3.53;0.70;;;20.00;85.10;;;;;;5070804;28;20017;-71
2022/07/26 08:47:19;;;;;;;4.30;1.00;;;20.00;85.40;;;;;;5083511;28;20020;-71
2022/07/26 08:49:45;;;;;;;2.65;0.73;;;20.00;84.60;;;;;;5070289;28;20069;-70
2022/07/26 08:52:15;;;;;;;3.30;0.80;;;20.00;87.10;;;;;;5086611;28;20043;-70
2022/07/26 08:54:47;;;;;;;5.13;1.08;;;20.10;87.60;;;;;;5068336;28;20021;-70
2022/07/26 08:57:14;;;;;;;4.90;1.20;;;20.10;87.70;;;;;;5070311;28;20052;-70
2022/07/26 08:59:40;;;;;;;4.10;0.70;;;20.10;88.10;;;;;;5070475;28;20020;-70
2022/07/26 09:02:09;;;;;;;2.53;1.13;;;20.20;87.60;;;;;;5085073;28;20039;-71
2022/07/26 09:04:44;;;;;;;4.32;1.70;;;20.20;84.40;;;;;;5052478;28;20481;-71
2022/07/26 09:07:14;;;;;;;3.70;1.33;;;20.30;87.30;;;;;;5068912;28;20067;-70
2022/07/26 09:10:01;;;;;;;2.25;0.73;;;20.40;86.70;;;;;;5081467;28;20012;-70
2022/07/26 09:12:29;;;;;;;4.80;0.70;;;20.50;82.30;;;;;;5084703;28;20063;-71
2022/07/26 09:14:56;;;;;;;2.90;1.25;;;20.50;81.80;;;;;;5070129;28;20020;-71
2022/07/26 09:17:23;;;;;;;1.67;0.80;;;20.50;78.00;;;;;;5069615;28;20064;-70
2022/07/26 09:20:15;;;;;;;4.43;0.73;;;20.40;79.80;;;;;;5068939;28;20028;-73
2022/07/26 09:23:10;;;;;;;2.58;0.63;;;20.30;79.90;;;;;;5073737;28;20030;-71
2022/07/26 09:25:41;;;;;;;1.90;0.70;;;20.30;80.50;;;;;;5066319;28;20107;-71
2022/07/26 09:28:28;;;;;;;5.82;1.05;;;20.40;79.90;;;;;;5066408;28;20028;-71
2022/07/26 09:31:00;;;;;;;2.75;0.50;;;20.40;80.10;;;;;;5068091;28;20025;-72
2022/07/26 09:33:46;;;;;;;2.85;0.65;;;20.40;82.60;;;;;;5069340;28;20021;-72
2022/07/26 09:36:11;;;;;;;3.70;0.70;;;20.50;84.30;;;;;;5064798;28;20071;-74
2022/07/26 09:38:48;;;;;;;2.60;0.63;;;20.50;83.10;;;;;;5067929;28;20055;-73
2022/07/26 09:41:20;;;;;;;2.58;0.80;;;20.50;80.00;;;;;;5063241;28;20049;-73
2022/07/26 09:43:46;;;;;;;4.80;0.80;;;20.50;81.40;;;;;;5061322;28;20013;-73
2022/07/26 09:46:13;;;;;;;3.80;0.80;;;20.40;83.70;;;;;;5064176;28;20040;-73
2022/07/26 09:48:40;;;;;;;4.20;0.88;;;20.50;84.30;;;;;;5062268;28;20016;-73
2022/07/26 09:51:06;;;;;;;3.83;0.50;;;20.50;83.60;;;;;;5063650;28;20116;-73
2022/07/26 09:53:44;;;;;;;3.78;0.68;;;20.60;83.20;;;;;;5062953;28;20431;-73
2022/07/26 09:56:11;;;;;;;2.42;0.73;;;20.70;83.40;;;;;;5062258;28;20075;-73
2022/07/26 09:58:38;;;;;;;3.92;0.88;;;20.80;83.40;;;;;;5064451;28;20073;-73
2022/07/26 10:01:05;;;;;;;6.22;0.95;;;20.90;82.20;;;;;;5063086;28;20025;-72
2022/07/26 10:03:32;;;;;;;4.53;1.02;;;20.90;82.00;;;;;;5061463;28;20016;-73
2022/07/26 10:05:59;;;;;;;6.50;0.90;;;20.90;82.10;;;;;;5063538;28;20028;-73
2022/07/26 10:08:25;;;;;;;4.03;0.60;;;20.90;83.20;;;;;;5064592;28;20017;-73
2022/07/26 10:10:59;;;;;;;4.30;0.70;;;21.00;82.70;;;;;;5061057;28;20024;-74
2022/07/26 10:13:26;;;;;;;5.35;0.60;;;21.10;82.10;;;;;;5057989;28;20028;-72
2022/07/26 10:15:53;;;;;;;1.85;0.40;;;21.10;81.10;;;;;;5061885;28;20032;-73
2022/07/26 10:18:36;;;;;;;2.05;0.68;;;21.20;79.70;;;;;;5065910;28;20066;-73
2022/07/26 10:21:14;;;;;;;3.60;0.50;;;21.30;76.20;;;;;;5083399;28;20017;-73
2022/07/26 10:23:43;;;;;;;4.15;0.68;;;21.50;74.30;;;;;;5060816;28;20037;-74
2022/07/26 10:26:32;;;;;;;1.25;0.60;;;21.50;73.60;;;;;;5063591;28;20031;-73
2022/07/26 10:29:23;;;;;;;2.63;0.60;;;21.40;73.70;;;;;;5060805;28;20094;-73
2022/07/26 10:32:14;;;;;;;2.50;0.60;;;21.40;73.60;;;;;;5068749;28;20062;-72
2022/07/26 10:34:40;;;;;;;2.78;0.73;;;21.20;74.80;;;;;;5068641;28;20024;-72
2022/07/26 10:37:18;;;;;;;2.78;0.82;;;21.00;75.10;;;;;;5069187;28;20025;-72
2022/07/26 10:39:44;;;;;;;3.40;0.80;;;20.70;76.70;;;;;;5063044;28;20109;-72
2022/07/26 10:42:10;;;;;;;3.58;0.90;;;20.50;79.30;;;;;;5065684;28;20148;-72
2022/07/26 10:44:40;;;;;;;3.75;0.88;;;20.40;81.40;;;;;;5066439;28;20021;-72
2022/07/26 10:47:06;;;;;;;4.60;1.00;;;20.50;81.70;;;;;;5062426;28;20093;-72
2022/07/26 10:49:36;;;;;;;3.15;0.90;;;20.50;82.10;;;;;;5060696;28;20020;-72
2022/07/26 10:52:29;;;;;;;5.95;1.40;;;20.60;80.50;;;;;;5064459;28;20031;-74
2022/07/26 10:55:24;;;;;;;3.05;0.80;;;20.70;85.10;;;;;;5062399;28;20095;-74
2022/07/26 10:57:52;;;;;;;3.40;1.00;;;20.90;83.80;;;;;;5067162;28;20108;-73
2022/07/26 11:00:24;;;;;;;3.33;0.68;;;20.90;84.30;;;;;;5060449;28;20024;-73
2022/07/26 11:02:56;;;;;;;5.47;0.80;;;21.10;84.00;;;;;;5070512;28;20028;-73
2022/07/26 11:05:27;;;;;;;2.42;0.60;;;21.30;84.60;;;;;;5076811;28;20028;-72
2022/07/26 11:07:54;;;;;;;3.45;0.73;;;21.60;82.70;;;;;;5084233;28;20475;-72
2022/07/26 11:10:25;;;;;;;5.18;1.08;;;21.80;78.70;;;;;;5072375;28;20035;-72
2022/07/26 11:13:03;;;;;;;3.33;1.05;;;21.90;79.90;;;;;;5068634;28;20032;-73
2022/07/26 11:15:30;;;;;;;5.05;1.20;;;22.10;78.70;;;;;;5072294;28;20032;-74
2022/07/26 11:18:21;;;;;;;2.78;0.60;;;22.10;77.90;;;;;;5065988;28;20072;-74
2022/07/26 11:20:50;;;;;;;3.08;0.80;;;22.10;75.80;;;;;;5064960;28;20037;-73
2022/07/26 11:23:21;;;;;;;4.20;0.88;;;22.30;73.60;;;;;;5080750;28;20020;-73
2022/07/26 11:26:01;;;;;;;3.92;0.90;;;22.30;73.20;;;;;;5066945;28;20036;-73
2022/07/26 11:28:27;;;;;;;3.30;0.68;;;22.30;77.40;;;;;;5075197;28;20020;-73
2022/07/26 11:30:59;;;;;;;4.03;0.90;;;22.40;77.00;;;;;;5075247;28;20502;-73
2022/07/26 11:33:38;;;;;;;3.08;0.80;;;22.60;76.20;;;;;;5083496;28;20021;-73
2022/07/26 11:36:05;;;;;;;3.00;0.70;;;22.70;74.00;;;;;;5063916;28;20111;-74
2022/07/26 11:38:52;;;;;;;4.93;1.20;;;22.90;72.20;;;;;;5056932;28;20152;-74
2022/07/26 11:41:22;;;;;;;4.30;1.10;;;23.10;75.40;;;;;;5074589;28;20095;-71
2022/07/26 11:43:50;;;;;;;6.55;1.00;;;23.40;74.50;;;;;;5067214;28;20031;-72
2022/07/26 11:46:16;;;;;;;3.47;0.80;;;23.50;73.30;;;;;;5078954;28;20500;-72
2022/07/26 11:48:46;;;;;;;3.85;1.13;;;23.50;71.90;;;;;;5064036;28;20025;-74
2022/07/26 11:51:13;;;;;;;;;;;23.40;70.40;;;;;;5064210;28;20048;-74
2022/07/26 11:53:40;;;;;;;5.68;1.20;;;23.20;71.40;;;;;;5060554;28;19940;-74
2022/07/26 11:56:10;;;;;;;4.28;0.80;;;23.20;71.50;;;;;;5066035;28;20078;-74
2022/07/26 11:58:42;;;;;;;5.47;1.20;;;23.30;71.70;;;;;;5062326;28;20027;-73
2022/07/26 12:01:09;;;;;;;3.80;0.93;;;23.30;72.90;;;;;;5059826;28;20024;-73
2022/07/26 12:03:39;;;;;;;2.70;0.60;;;23.50;73.10;;;;;;5064286;28;20100;-73
2022/07/26 12:06:07;;;;;;;9.73;1.35;;;23.70;71.10;;;;;;5064762;28;20143;-74
2022/07/26 12:08:54;;;;;;;4.35;0.82;;;23.90;70.40;;;;;;5064747;28;20471;-74
2022/07/26 12:11:21;;;;;;;2.75;0.77;;;23.90;69.70;;;;;;5063232;28;20033;-74
2022/07/26 12:13:51;;;;;;;4.03;0.93;;;23.80;68.20;;;;;;5058491;28;20020;-75
2022/07/26 12:16:38;;;;;;;4.40;1.02;;;23.70;68.50;;;;;;5068896;28;20090;-75
2022/07/26 12:19:07;;;;;;;4.22;0.90;;;23.80;68.20;;;;;;5065474;28;20059;-73
2022/07/26 12:21:38;;;;;;;3.65;0.80;;;23.80;67.90;;;;;;5063621;28;20032;-74
2022/07/26 12:24:04;;;;;;;3.63;0.73;;;23.90;68.50;;;;;;5065141;28;20044;-74
2022/07/26 12:26:29;;;;;;;4.13;0.80;;;23.90;68.90;;;;;;5070012;28;20020;-74
2022/07/26 12:28:56;;;;;;;3.58;0.80;;;23.80;68.30;;;;;;5065152;28;20489;-75
2022/07/26 12:31:30;;;;;;;2.47;0.57;;;23.90;67.70;;;;;;5063463;28;20033;-76
2022/07/26 12:33:56;;;;;;;1.88;0.52;;;23.90;69.30;;;;;;5065664;28;20097;-74
2022/07/26 12:36:24;;;;;;;3.58;0.90;;;23.90;69.30;;;;;;5062627;28;20715;-75
2022/07/26 12:38:52;;;;;;;5.43;0.70;;;23.90;68.30;;;;;;5064505;28;20036;-75
2022/07/26 12:41:39;;;;;;;2.92;0.80;;;24.00;68.90;;;;;;5062633;28;20044;-74
2022/07/26 12:44:06;;;;;;;4.72;0.98;;;24.00;68.60;;;;;;5060357;28;20040;-76
2022/07/26 12:46:35;;;;;;;4.80;0.88;;;24.20;67.30;;;;;;5068771;28;20016;-75
2022/07/26 12:49:02;;;;;;;4.22;0.75;;;24.10;66.20;;;;;;5059423;28;20021;-75
2022/07/26 12:51:28;;;;;;;4.10;1.00;;;24.10;66.90;;;;;;5060342;28;20529;-74